createdAt,value
2019-05-22T00:00:57.884Z,14.30
2019-05-22T00:03:49.486Z,14.30
2019-05-22T00:06:24.540Z,14.30
2019-05-22T00:08:54.312Z,14.30
2019-05-22T00:11:25.107Z,14.30
2019-05-22T00:13:55.270Z,14.30
2019-05-22T00:16:25.756Z,14.30
2019-05-22T00:19:25.856Z,14.30
2019-05-22T00:22:11.510Z,14.30
2019-05-22T00:24:44.128Z,14.20
2019-05-22T00:27:40.363Z,14.20
2019-05-22T00:34:04.223Z,14.10
2019-05-22T00:36:33.832Z,14.10
2019-05-22T00:39:34.205Z,14.10
2019-05-22T00:42:34.076Z,14.10
2019-05-22T00:45:04.890Z,14.10
2019-05-22T00:47:36.047Z,14.10
2019-05-22T00:50:08.457Z,14.20
2019-05-22T00:52:49.925Z,14.10
2019-05-22T00:55:43.868Z,14.10
2019-05-22T00:58:24.387Z,14.10
2019-05-22T01:01:12.237Z,14.10
2019-05-22T01:03:42.913Z,14.10
2019-05-22T01:06:13.286Z,14.10
2019-05-22T01:08:44.483Z,14.10
2019-05-22T01:11:15.042Z,14.00
2019-05-22T01:14:10.617Z,14.10
2019-05-22T01:16:42.343Z,14.10
2019-05-22T01:19:11.721Z,14.10
2019-05-22T01:21:41.151Z,14.00
2019-05-22T01:24:12.479Z,14.00
2019-05-22T01:27:35.045Z,14.00
2019-05-22T01:30:39.595Z,14.00
2019-05-22T01:33:41.544Z,14.00
2019-05-22T01:36:25.818Z,13.90
2019-05-22T01:39:00.760Z,13.90
2019-05-22T01:41:32.656Z,13.90
2019-05-22T01:44:05.930Z,13.90
2019-05-22T01:46:43.215Z,13.90
2019-05-22T01:49:18.682Z,13.90
2019-05-22T01:52:36.666Z,13.80
2019-05-22T01:55:14.208Z,13.80
2019-05-22T01:57:49.283Z,13.90
2019-05-22T02:00:45.709Z,13.90
2019-05-22T02:03:18.651Z,13.90
2019-05-22T02:09:48.025Z,13.80
2019-05-22T02:12:57.247Z,13.70
2019-05-22T02:15:27.645Z,13.70
2019-05-22T02:18:08.400Z,13.70
2019-05-22T02:20:39.443Z,13.80
2019-05-22T02:23:09.479Z,13.70
2019-05-22T02:25:39.130Z,13.70
2019-05-22T02:28:09.019Z,13.80
2019-05-22T02:31:06.785Z,13.80
2019-05-22T02:37:38.006Z,13.70
2019-05-22T02:40:13.432Z,13.60
2019-05-22T02:43:32.523Z,13.60
2019-05-22T02:49:18.475Z,13.50
2019-05-22T02:51:48.554Z,13.50
2019-05-22T02:54:40.259Z,13.50
2019-05-22T02:57:11.677Z,13.50
2019-05-22T02:59:43.250Z,13.50
2019-05-22T03:02:14.029Z,13.50
2019-05-22T03:05:23.074Z,13.60
2019-05-22T03:07:32.887Z,13.60
2019-05-22T03:10:03.480Z,13.50
2019-05-22T03:12:36.275Z,13.50
2019-05-22T03:15:08.821Z,13.50
2019-05-22T03:17:40.907Z,13.60
2019-05-22T03:20:13.836Z,13.60
2019-05-22T03:22:57.022Z,13.60
2019-05-22T03:25:28.015Z,13.50
2019-05-22T03:27:57.390Z,13.50
2019-05-22T03:30:30.627Z,13.40
2019-05-22T03:33:02.514Z,13.40
2019-05-22T03:36:40.076Z,13.40
2019-05-22T03:39:11.258Z,13.40
2019-05-22T03:41:42.765Z,13.40
2019-05-22T03:44:13.660Z,13.40
2019-05-22T03:46:46.074Z,13.40
2019-05-22T03:49:30.094Z,13.40
2019-05-22T03:52:15.099Z,13.40
2019-05-22T03:54:45.122Z,13.40
2019-05-22T03:57:14.518Z,13.40
2019-05-22T03:59:44.067Z,13.40
2019-05-22T04:02:14.337Z,13.50
2019-05-22T04:04:44.033Z,13.40
2019-05-22T04:07:16.422Z,13.40
2019-05-22T04:09:46.286Z,13.40
2019-05-22T04:12:16.756Z,13.40
2019-05-22T04:14:46.682Z,13.50
2019-05-22T04:17:17.532Z,13.40
2019-05-22T04:19:51.094Z,13.40
2019-05-22T04:22:18.960Z,13.40
2019-05-22T04:24:48.457Z,13.40
2019-05-22T04:27:18.693Z,13.50
2019-05-22T04:33:35.255Z,13.50
2019-05-22T04:36:10.087Z,13.50
2019-05-22T04:38:37.813Z,13.50
2019-05-22T04:41:09.231Z,13.50
2019-05-22T04:44:00.056Z,13.50
2019-05-22T04:46:33.612Z,13.50
2019-05-22T04:49:03.188Z,13.50
2019-05-22T04:51:33.820Z,13.50
2019-05-22T04:54:03.340Z,13.50
2019-05-22T04:56:32.519Z,13.50
2019-05-22T04:59:02.764Z,13.50
2019-05-22T05:01:32.596Z,13.50
2019-05-22T05:04:02.934Z,13.50
2019-05-22T05:06:35.556Z,13.50
2019-05-22T05:09:08.095Z,13.50
2019-05-22T05:11:38.321Z,13.50
2019-05-22T05:14:07.687Z,13.50
2019-05-22T05:16:36.956Z,13.50
2019-05-22T05:19:06.993Z,13.40
2019-05-22T05:21:38.113Z,13.40
2019-05-22T05:24:08.260Z,13.40
2019-05-22T05:26:39.072Z,13.40
2019-05-22T05:29:25.789Z,13.50
2019-05-22T05:31:55.192Z,13.40
2019-05-22T05:34:49.906Z,13.40
2019-05-22T05:37:22.244Z,13.40
2019-05-22T05:40:31.565Z,13.40
2019-05-22T05:43:01.639Z,13.40
2019-05-22T05:45:32.671Z,13.40
2019-05-22T05:48:05.382Z,13.40
2019-05-22T05:50:39.900Z,13.40
2019-05-22T05:53:12.340Z,13.40
2019-05-22T05:56:11.675Z,13.40
2019-05-22T05:58:41.338Z,13.40
2019-05-22T06:01:22.417Z,13.40
2019-05-22T06:03:52.755Z,13.40
2019-05-22T06:07:18.472Z,13.40
2019-05-22T06:10:26.806Z,13.40
2019-05-22T06:12:57.260Z,13.40
2019-05-22T06:15:47.053Z,13.40
2019-05-22T06:18:32.119Z,13.40
2019-05-22T06:21:04.225Z,13.40
2019-05-22T06:24:18.119Z,13.40
2019-05-22T06:27:26.844Z,13.40
2019-05-22T06:30:04.879Z,13.40
2019-05-22T06:33:36.685Z,13.40
2019-05-22T06:36:10.483Z,13.40
2019-05-22T06:38:59.347Z,13.40
2019-05-22T06:41:32.869Z,13.40
2019-05-22T06:44:35.034Z,13.40
2019-05-22T06:47:05.797Z,13.40
2019-05-22T06:49:40.733Z,13.40
2019-05-22T06:52:10.473Z,13.40
2019-05-22T06:54:39.731Z,13.40
2019-05-22T06:57:22.833Z,13.50
2019-05-22T07:00:11.501Z,13.40
2019-05-22T07:02:25.517Z,13.50
2019-05-22T07:04:54.978Z,13.50
2019-05-22T07:07:28.939Z,13.50
2019-05-22T07:09:59.293Z,13.50
2019-05-22T07:12:31.320Z,13.50
2019-05-22T07:15:31.302Z,13.50
2019-05-22T07:18:01.305Z,13.60
2019-05-22T07:20:33.411Z,13.60
2019-05-22T07:23:05.962Z,13.50
2019-05-22T07:25:36.413Z,13.50
2019-05-22T07:28:06.836Z,13.50
2019-05-22T07:30:40.504Z,13.50
2019-05-22T07:33:15.431Z,13.50
2019-05-22T07:36:08.698Z,13.60
2019-05-22T07:38:21.020Z,13.60
2019-05-22T07:40:51.866Z,13.60
2019-05-22T07:43:22.312Z,13.60
2019-05-22T07:45:55.688Z,13.70
2019-05-22T07:48:26.785Z,13.70
2019-05-22T07:50:57.768Z,13.70
2019-05-22T07:53:28.607Z,13.70
2019-05-22T07:55:59.650Z,13.70
2019-05-22T07:58:32.906Z,13.80
2019-05-22T08:01:03.364Z,13.80
2019-05-22T08:03:38.714Z,13.70
2019-05-22T08:06:12.748Z,13.70
2019-05-22T08:08:48.380Z,13.80
2019-05-22T08:11:19.680Z,13.80
2019-05-22T08:13:48.961Z,13.80
2019-05-22T08:16:19.519Z,13.80
2019-05-22T08:18:48.864Z,13.80
2019-05-22T08:21:18.232Z,13.80
2019-05-22T08:23:47.518Z,13.70
2019-05-22T08:26:18.982Z,13.80
2019-05-22T08:28:48.380Z,13.80
2019-05-22T08:31:21.204Z,13.70
2019-05-22T08:33:50.990Z,13.80
2019-05-22T08:36:20.494Z,13.80
2019-05-22T08:38:50.492Z,13.80
2019-05-22T08:41:25.533Z,13.80
2019-05-22T08:44:14.522Z,13.80
2019-05-22T08:46:26.300Z,13.90
2019-05-22T08:48:56.042Z,13.90
2019-05-22T08:51:27.393Z,13.90
2019-05-22T08:53:57.246Z,13.90
2019-05-22T08:56:27.462Z,13.90
2019-05-22T08:58:57.328Z,13.90
2019-05-22T09:01:28.348Z,13.90
2019-05-22T09:03:57.505Z,13.90
2019-05-22T09:06:26.620Z,14.00
2019-05-22T09:08:55.876Z,14.00
2019-05-22T09:11:25.127Z,14.00
2019-05-22T09:13:54.310Z,14.00
2019-05-22T09:16:23.443Z,14.00
2019-05-22T09:18:53.660Z,14.10
2019-05-22T09:21:23.360Z,14.10
2019-05-22T09:23:53.909Z,14.10
2019-05-22T09:26:25.129Z,14.10
2019-05-22T09:28:54.675Z,14.10
2019-05-22T09:31:24.018Z,14.10
2019-05-22T09:33:53.226Z,14.10
2019-05-22T09:36:22.383Z,14.10
2019-05-22T09:38:52.590Z,14.10
2019-05-22T09:41:22.272Z,14.00
2019-05-22T09:43:52.600Z,14.00
2019-05-22T09:46:22.469Z,14.00
2019-05-22T09:48:52.177Z,14.00
2019-05-22T09:51:21.687Z,14.10
2019-05-22T09:53:51.385Z,14.10
2019-05-22T09:56:21.332Z,14.10
2019-05-22T09:58:50.869Z,14.10
2019-05-22T10:01:20.494Z,14.20
2019-05-22T10:03:49.964Z,14.20
2019-05-22T10:06:21.587Z,14.20
2019-05-22T10:08:50.447Z,14.20
2019-05-22T10:11:20.601Z,14.30
2019-05-22T10:13:50.112Z,14.40
2019-05-22T10:16:20.095Z,14.30
2019-05-22T10:18:53.054Z,14.30
2019-05-22T10:21:26.479Z,14.30
2019-05-22T10:24:03.495Z,14.40
2019-05-22T10:26:33.307Z,14.30
2019-05-22T10:29:02.625Z,14.40
2019-05-22T10:31:31.651Z,14.40
2019-05-22T10:34:01.371Z,14.60
2019-05-22T10:36:30.729Z,14.50
2019-05-22T10:39:00.079Z,14.50
2019-05-22T10:41:29.421Z,14.60
2019-05-22T10:43:59.704Z,14.70
2019-05-22T10:46:29.258Z,14.90
2019-05-22T10:48:58.831Z,14.90
2019-05-22T10:51:29.061Z,15.00
2019-05-22T10:53:58.821Z,15.00
2019-05-22T10:56:28.111Z,15.00
2019-05-22T10:59:00.966Z,15.10
2019-05-22T11:01:29.570Z,15.20
2019-05-22T11:03:59.442Z,15.30
2019-05-22T11:06:29.039Z,15.40
2019-05-22T11:08:58.579Z,15.40
2019-05-22T11:11:28.133Z,15.40
2019-05-22T11:14:01.697Z,15.40
2019-05-22T11:16:28.863Z,15.40
2019-05-22T11:18:58.080Z,15.40
2019-05-22T11:21:27.947Z,15.50
2019-05-22T11:23:57.490Z,15.50
2019-05-22T11:26:27.422Z,15.60
2019-05-22T11:28:56.762Z,15.60
2019-05-22T11:31:26.128Z,15.70
2019-05-22T11:33:55.551Z,15.80
2019-05-22T11:36:25.740Z,15.90
2019-05-22T11:38:55.062Z,16.00
2019-05-22T11:41:24.451Z,16.10
2019-05-22T11:43:53.964Z,16.30
2019-05-22T11:46:23.543Z,16.40
2019-05-22T11:48:53.451Z,16.50
2019-05-22T11:51:23.009Z,16.50
2019-05-22T11:54:08.244Z,16.60
2019-05-22T11:56:23.356Z,16.70
2019-05-22T11:58:52.515Z,16.70
2019-05-22T12:01:22.356Z,16.70
2019-05-22T12:03:51.951Z,16.80
2019-05-22T12:06:21.714Z,16.90
2019-05-22T12:08:51.085Z,16.90
2019-05-22T12:11:20.816Z,17.10
2019-05-22T12:13:50.018Z,17.20
2019-05-22T12:16:20.671Z,17.30
2019-05-22T12:18:50.071Z,17.50
2019-05-22T12:21:19.604Z,17.70
2019-05-22T12:23:50.005Z,17.80
2019-05-22T12:26:20.687Z,17.90
2019-05-22T12:28:50.118Z,18.00
2019-05-22T12:31:20.148Z,18.10
2019-05-22T12:33:50.149Z,18.20
2019-05-22T12:36:19.732Z,18.40
2019-05-22T12:38:49.248Z,18.50
2019-05-22T12:41:19.790Z,18.50
2019-05-22T12:43:49.243Z,18.60
2019-05-22T12:46:19.646Z,18.60
2019-05-22T12:48:48.829Z,18.60
2019-05-22T12:51:18.950Z,18.70
2019-05-22T12:53:48.733Z,18.80
2019-05-22T12:56:18.816Z,18.80
2019-05-22T12:58:48.079Z,18.90
2019-05-22T13:01:18.473Z,19.00
2019-05-22T13:03:49.297Z,19.00
2019-05-22T13:06:18.683Z,19.00
2019-05-22T13:08:47.987Z,19.00
2019-05-22T13:11:22.877Z,19.10
2019-05-22T13:13:57.358Z,19.20
2019-05-22T13:16:27.197Z,19.30
2019-05-22T13:18:57.380Z,19.30
2019-05-22T13:21:33.798Z,19.30
2019-05-22T13:24:09.956Z,19.30
2019-05-22T13:26:39.598Z,19.40
2019-05-22T13:29:09.466Z,19.40
2019-05-22T13:31:38.863Z,19.30
2019-05-22T13:34:08.334Z,19.40
2019-05-22T13:36:37.531Z,19.40
2019-05-22T13:39:09.564Z,19.60
2019-05-22T13:41:44.698Z,19.60
2019-05-22T13:44:19.667Z,19.70
2019-05-22T13:46:49.403Z,19.70
2019-05-22T13:49:19.696Z,19.60
2019-05-22T13:51:49.467Z,19.60
2019-05-22T13:54:18.806Z,19.50
2019-05-22T13:56:48.271Z,19.40
2019-05-22T13:59:18.331Z,19.30
2019-05-22T14:01:57.436Z,19.20
2019-05-22T14:04:32.204Z,19.30
2019-05-22T14:07:03.166Z,19.30
2019-05-22T14:09:32.280Z,19.40
2019-05-22T14:12:01.494Z,19.50
2019-05-22T14:14:30.747Z,19.60
2019-05-22T14:17:01.574Z,19.70
2019-05-22T14:19:34.567Z,19.70
2019-05-22T14:22:10.372Z,19.70
2019-05-22T14:24:49.658Z,19.60
2019-05-22T14:27:24.427Z,19.50
2019-05-22T14:29:54.960Z,19.40
2019-05-22T14:32:44.503Z,19.30
2019-05-22T14:35:21.331Z,19.20
2019-05-22T14:37:56.199Z,19.20
2019-05-22T14:40:31.806Z,19.10
2019-05-22T14:43:39.703Z,19.10
2019-05-22T14:46:12.963Z,19.20
2019-05-22T14:48:43.020Z,19.20
2019-05-22T14:51:12.334Z,19.30
2019-05-22T14:53:41.816Z,19.30
2019-05-22T14:56:11.526Z,19.40
2019-05-22T14:58:41.671Z,19.50
2019-05-22T15:01:12.474Z,19.50
2019-05-22T15:03:47.228Z,19.60
2019-05-22T15:06:22.138Z,19.60
2019-05-22T15:08:51.843Z,19.70
2019-05-22T15:11:24.483Z,19.70
2019-05-22T15:13:53.876Z,19.70
2019-05-22T15:16:23.241Z,19.60
2019-05-22T15:18:52.989Z,19.60
2019-05-22T15:21:22.211Z,19.60
2019-05-22T15:23:52.023Z,19.60
2019-05-22T15:26:21.396Z,19.60
2019-05-22T15:28:51.131Z,19.50
2019-05-22T15:31:20.774Z,19.50
2019-05-22T15:33:51.174Z,19.40
2019-05-22T15:36:22.699Z,19.40
2019-05-22T15:38:53.308Z,19.40
2019-05-22T15:41:23.663Z,19.40
2019-05-22T15:43:54.473Z,19.40
2019-05-22T15:46:27.208Z,19.30
2019-05-22T15:48:57.240Z,19.20
2019-05-22T15:51:32.884Z,19.10
2019-05-22T15:54:07.015Z,19.10
2019-05-22T15:56:37.937Z,19.10
2019-05-22T15:59:10.055Z,19.10
2019-05-22T16:01:39.602Z,19.10
2019-05-22T16:04:11.693Z,19.10
2019-05-22T16:06:41.107Z,19.10
2019-05-22T16:09:19.318Z,19.10
2019-05-22T16:11:52.956Z,19.10
2019-05-22T16:14:27.552Z,19.10
2019-05-22T16:16:58.366Z,19.20
2019-05-22T16:19:30.250Z,19.20
2019-05-22T16:22:05.250Z,19.20
2019-05-22T16:24:35.659Z,19.30
2019-05-22T16:27:06.733Z,19.30
2019-05-22T16:29:36.122Z,19.30
2019-05-22T16:32:10.090Z,19.30
2019-05-22T16:34:44.570Z,19.30
2019-05-22T16:37:17.719Z,19.20
2019-05-22T16:39:52.682Z,19.20
2019-05-22T16:42:23.150Z,19.10
2019-05-22T16:44:52.747Z,19.10
2019-05-22T16:47:24.033Z,19.10
2019-05-22T16:49:54.562Z,19.10
2019-05-22T16:52:25.647Z,19.00
2019-05-22T16:54:56.370Z,19.00
2019-05-22T16:57:26.443Z,18.90
2019-05-22T16:59:55.746Z,18.90
2019-05-22T17:02:25.925Z,18.90
2019-05-22T17:04:55.246Z,18.90
2019-05-22T17:07:31.818Z,18.90
2019-05-22T17:10:04.863Z,18.80
2019-05-22T17:12:34.859Z,18.70
2019-05-22T17:15:06.009Z,18.70
2019-05-22T17:17:35.217Z,18.70
2019-05-22T17:20:11.295Z,18.60
2019-05-22T17:22:46.537Z,18.60
2019-05-22T17:25:17.651Z,18.60
2019-05-22T17:27:47.258Z,18.50
2019-05-22T17:30:20.604Z,18.50
2019-05-22T17:32:49.659Z,18.40
2019-05-22T17:35:20.281Z,18.30
2019-05-22T17:37:50.110Z,18.30
2019-05-22T17:40:20.348Z,18.30
2019-05-22T17:42:52.400Z,18.30
2019-05-22T17:45:25.702Z,18.20
2019-05-22T17:47:56.006Z,18.20
2019-05-22T17:50:27.788Z,18.20
2019-05-22T17:52:57.915Z,18.20
2019-05-22T17:55:28.705Z,18.20
2019-05-22T17:57:58.626Z,18.20
2019-05-22T18:00:32.038Z,18.20
2019-05-22T18:03:02.753Z,18.20
2019-05-22T18:05:33.296Z,18.20
2019-05-22T18:08:02.505Z,18.20
2019-05-22T18:10:39.884Z,18.10
2019-05-22T18:13:06.508Z,18.10
2019-05-22T18:15:36.003Z,18.10
2019-05-22T18:18:07.035Z,18.10
2019-05-22T18:20:42.999Z,18.10
2019-05-22T18:23:07.670Z,18.00
2019-05-22T18:25:37.290Z,18.00
2019-05-22T18:28:07.443Z,17.90
2019-05-22T18:30:40.357Z,17.90
2019-05-22T18:33:09.939Z,17.90
2019-05-22T18:35:39.743Z,17.80
2019-05-22T18:38:14.200Z,17.80
2019-05-22T18:40:48.931Z,17.80
2019-05-22T18:43:23.810Z,17.90
2019-05-22T18:45:54.183Z,17.80
2019-05-22T18:48:23.337Z,17.80
2019-05-22T18:50:53.592Z,17.80
2019-05-22T18:53:23.092Z,17.80
2019-05-22T18:55:52.263Z,17.90
2019-05-22T18:58:21.892Z,17.90
2019-05-22T19:00:51.066Z,17.80
2019-05-22T19:03:20.104Z,17.80
2019-05-22T19:05:49.961Z,17.80
2019-05-22T19:08:19.122Z,17.70
2019-05-22T19:10:48.355Z,17.60
2019-05-22T19:13:17.870Z,17.50
2019-05-22T19:15:47.357Z,17.40
2019-05-22T19:18:16.735Z,17.30
2019-05-22T19:20:46.021Z,17.20
2019-05-22T19:23:15.283Z,17.20
2019-05-22T19:25:44.414Z,17.10
2019-05-22T19:28:13.467Z,17.00
2019-05-22T19:30:42.767Z,17.00
2019-05-22T19:33:14.763Z,16.80
2019-05-22T19:35:43.532Z,16.80
2019-05-22T19:38:12.674Z,16.70
2019-05-22T19:40:42.121Z,16.70
2019-05-22T19:43:11.792Z,16.60
2019-05-22T19:45:41.020Z,16.60
2019-05-22T19:48:10.738Z,16.50
2019-05-22T19:50:40.443Z,16.50
2019-05-22T19:53:19.338Z,16.40
2019-05-22T19:55:46.661Z,16.40
2019-05-22T19:58:15.979Z,16.30
2019-05-22T20:00:45.749Z,16.30
2019-05-22T20:03:15.021Z,16.20
2019-05-22T20:05:44.163Z,16.20
2019-05-22T20:08:13.585Z,16.10
2019-05-22T20:10:43.130Z,16.10
2019-05-22T20:13:12.804Z,16.00
2019-05-22T20:15:42.534Z,16.00
2019-05-22T20:18:11.669Z,15.90
2019-05-22T20:20:41.587Z,15.90
2019-05-22T20:23:11.214Z,15.80
2019-05-22T20:25:40.854Z,15.80
2019-05-22T20:28:10.990Z,15.80
2019-05-22T20:30:40.431Z,15.70
2019-05-22T20:33:10.144Z,15.70
2019-05-22T20:35:39.415Z,15.60
2019-05-22T20:38:09.323Z,15.60
2019-05-22T20:40:39.111Z,15.60
2019-05-22T20:43:14.331Z,15.50
2019-05-22T20:45:48.147Z,15.50
2019-05-22T20:48:29.945Z,15.50
2019-05-22T20:51:01.746Z,15.50
2019-05-22T20:53:33.043Z,15.50
2019-05-22T20:56:03.359Z,15.40
2019-05-22T20:58:33.864Z,15.40
2019-05-22T21:01:03.701Z,15.30
2019-05-22T21:03:33.419Z,15.40
2019-05-22T21:06:05.418Z,15.30
2019-05-22T21:08:34.665Z,15.20
2019-05-22T21:11:04.499Z,15.20
2019-05-22T21:13:34.516Z,15.20
2019-05-22T21:16:04.131Z,15.20
2019-05-22T21:18:41.907Z,15.10
2019-05-22T21:21:11.902Z,15.10
2019-05-22T21:23:41.423Z,15.00
2019-05-22T21:26:10.847Z,15.00
2019-05-22T21:28:40.225Z,15.00
2019-05-22T21:31:09.895Z,14.90
2019-05-22T21:33:39.851Z,14.90
2019-05-22T21:36:12.444Z,14.90
2019-05-22T21:38:41.699Z,14.90
2019-05-22T21:41:11.370Z,14.90
2019-05-22T21:43:41.364Z,14.90
2019-05-22T21:46:10.949Z,14.90
2019-05-22T21:48:40.892Z,14.90
2019-05-22T21:51:10.636Z,14.90
2019-05-22T21:53:40.009Z,14.90
2019-05-22T21:56:09.643Z,14.90
2019-05-22T21:58:39.330Z,14.90
2019-05-22T22:01:17.965Z,15.00
2019-05-22T22:03:50.243Z,15.00
2019-05-22T22:06:20.511Z,15.00
2019-05-22T22:08:50.175Z,14.90
2019-05-22T22:11:40.011Z,14.90
2019-05-22T22:14:10.763Z,14.90
2019-05-22T22:16:41.125Z,14.80
2019-05-22T22:19:11.548Z,14.80
2019-05-22T22:21:41.478Z,14.70
2019-05-22T22:24:10.729Z,14.70
2019-05-22T22:26:39.918Z,14.70
2019-05-22T22:29:10.283Z,14.70
2019-05-22T22:31:40.668Z,14.60
2019-05-22T22:34:39.808Z,14.60
2019-05-22T22:37:11.256Z,14.50
2019-05-22T22:39:43.543Z,14.50
2019-05-22T22:42:15.726Z,14.50
2019-05-22T22:44:48.112Z,14.40
2019-05-22T22:47:20.281Z,14.40
2019-05-22T22:49:54.843Z,14.30
2019-05-22T22:52:30.651Z,14.30
2019-05-22T22:55:05.361Z,14.30
2019-05-22T22:57:36.026Z,14.20
2019-05-22T23:00:07.775Z,14.20
2019-05-22T23:02:40.156Z,14.20
2019-05-22T23:05:11.938Z,14.20
2019-05-22T23:07:43.406Z,14.10
2019-05-22T23:10:15.664Z,14.10
2019-05-22T23:12:44.765Z,14.10
2019-05-22T23:15:18.400Z,14.00
2019-05-22T23:17:49.041Z,14.00
2019-05-22T23:20:17.240Z,13.90
2019-05-22T23:22:49.043Z,13.90
2019-05-22T23:25:19.413Z,13.90
2019-05-22T23:27:48.751Z,13.90
2019-05-22T23:30:18.616Z,13.90
2019-05-22T23:32:48.134Z,13.90
2019-05-22T23:35:17.374Z,13.90
2019-05-22T23:37:46.737Z,13.90
2019-05-22T23:40:20.890Z,13.90
2019-05-22T23:42:50.366Z,13.80
2019-05-22T23:45:22.677Z,13.80
2019-05-22T23:48:07.298Z,13.80
2019-05-22T23:50:38.072Z,13.80
2019-05-22T23:53:08.646Z,13.80
2019-05-22T23:55:38.812Z,13.80
2019-05-22T23:58:09.843Z,13.80
